createdAt,value
2019-04-21T00:00:35.580Z,12.67
2019-04-21T00:06:18.397Z,10.73
2019-04-21T00:11:40.864Z,11.13
2019-04-21T00:16:53.909Z,11.20
2019-04-21T00:22:19.487Z,10.67
2019-04-21T00:27:47.497Z,10.07
2019-04-21T00:33:05.234Z,14.27
2019-04-21T00:38:45.451Z,11.97
2019-04-21T00:43:57.238Z,11.07
2019-04-21T00:49:24.327Z,11.10
2019-04-21T00:55:10.902Z,12.10
2019-04-21T01:00:18.612Z,12.50
2019-04-21T01:05:46.976Z,10.83
2019-04-21T01:11:02.146Z,12.43
2019-04-21T01:16:35.056Z,11.03
2019-04-21T01:21:32.241Z,11.20
2019-04-21T01:27:04.532Z,12.77
2019-04-21T01:32:43.890Z,11.30
2019-04-21T01:38:01.941Z,12.77
2019-04-21T01:43:24.930Z,13.67
2019-04-21T01:48:42.781Z,19.40
2019-04-21T01:54:35.150Z,16.97
2019-04-21T01:59:45.745Z,20.50
2019-04-21T02:05:28.368Z,19.43
2019-04-21T02:10:46.177Z,15.93
2019-04-21T02:16:06.838Z,14.63
2019-04-21T02:21:22.158Z,19.93
2019-04-21T02:26:54.276Z,19.70
2019-04-21T02:32:26.230Z,25.60
2019-04-21T02:43:18.631Z,16.03
2019-04-21T02:48:45.731Z,15.20
2019-04-21T02:54:31.494Z,12.80
2019-04-21T02:59:35.831Z,15.50
2019-04-21T03:05:21.310Z,14.83
2019-04-21T03:10:51.278Z,13.67
2019-04-21T03:16:19.897Z,15.50
2019-04-21T03:27:00.990Z,12.77
2019-04-21T03:37:39.685Z,16.47
2019-04-21T03:43:04.434Z,14.80
2019-04-21T03:48:31.943Z,19.07
2019-04-21T03:53:46.017Z,16.83
2019-04-21T04:05:03.715Z,13.30
2019-04-21T04:10:39.149Z,14.17
2019-04-21T04:15:49.062Z,13.60
2019-04-21T04:21:15.028Z,13.38
2019-04-21T04:26:33.493Z,14.33
2019-04-21T04:32:00.906Z,14.10
2019-04-21T04:37:30.253Z,13.70
2019-04-21T04:43:08.624Z,14.83
2019-04-21T04:53:47.234Z,13.00
2019-04-21T05:04:52.106Z,15.63
2019-04-21T05:09:59.784Z,13.43
2019-04-21T05:15:16.151Z,13.17
2019-04-21T05:20:53.348Z,12.58
2019-04-21T05:25:53.357Z,12.95
2019-04-21T05:31:51.137Z,12.18
2019-04-21T05:37:30.487Z,14.75
2019-04-21T05:42:55.441Z,14.23
2019-04-21T05:48:52.624Z,15.38
2019-04-21T05:54:11.046Z,15.40
2019-04-21T05:59:21.699Z,14.40
2019-04-21T06:05:05.856Z,14.00
2019-04-21T06:10:12.285Z,12.90
2019-04-21T06:15:42.948Z,14.93
2019-04-21T06:21:05.056Z,15.35
2019-04-21T06:26:54.959Z,13.28
2019-04-21T06:32:16.311Z,11.57
2019-04-21T06:37:40.567Z,16.15
2019-04-21T06:42:50.382Z,16.15
2019-04-21T06:48:21.110Z,14.33
2019-04-21T06:53:45.553Z,11.80
2019-04-21T06:59:01.434Z,14.58
2019-04-21T07:04:22.314Z,13.53
2019-04-21T07:09:52.848Z,11.88
2019-04-21T07:15:11.355Z,13.45
2019-04-21T07:20:38.127Z,16.05
2019-04-21T07:26:00.703Z,17.32
2019-04-21T07:31:28.501Z,16.10
2019-04-21T07:36:58.042Z,16.45
2019-04-21T07:42:04.909Z,14.68
2019-04-21T07:47:41.667Z,16.10
2019-04-21T07:53:14.434Z,15.88
2019-04-21T07:58:35.438Z,14.33
2019-04-21T08:04:03.860Z,13.05
2019-04-21T08:09:24.571Z,12.63
2019-04-21T08:14:44.738Z,13.62
2019-04-21T08:20:07.454Z,13.05
2019-04-21T08:25:54.282Z,13.55
2019-04-21T08:30:55.489Z,12.40
2019-04-21T08:41:45.336Z,12.53
2019-04-21T08:47:06.086Z,15.25
2019-04-21T08:52:37.109Z,16.37
2019-04-21T08:58:17.418Z,16.45
2019-04-21T09:03:56.791Z,11.65
2019-04-21T09:09:21.019Z,13.55
2019-04-21T09:14:39.544Z,14.40
2019-04-21T09:20:07.939Z,12.45
2019-04-21T09:25:33.344Z,12.55
2019-04-21T09:30:39.628Z,14.90
2019-04-21T09:36:01.039Z,11.90
2019-04-21T09:41:22.898Z,12.60
2019-04-21T09:46:50.588Z,12.75
2019-04-21T09:52:13.767Z,17.52
2019-04-21T09:57:39.178Z,15.18
2019-04-21T10:03:02.129Z,14.07
2019-04-21T10:08:18.791Z,16.10
2019-04-21T10:13:41.941Z,14.78
2019-04-21T10:19:04.594Z,12.63
2019-04-21T10:24:44.672Z,13.58
2019-04-21T10:30:07.844Z,15.45
2019-04-21T10:35:30.922Z,15.55
2019-04-21T10:40:53.663Z,12.40
2019-04-21T10:46:16.931Z,13.45
2019-04-21T10:51:39.321Z,16.20
2019-04-21T10:57:04.176Z,13.93
2019-04-21T11:02:36.860Z,13.80
2019-04-21T11:08:08.979Z,17.70
2019-04-21T11:13:23.010Z,11.73
2019-04-21T11:18:46.073Z,18.20
2019-04-21T11:24:08.534Z,13.53
2019-04-21T11:29:31.000Z,14.13
2019-04-21T11:34:53.018Z,13.05
2019-04-21T11:40:18.108Z,17.02
2019-04-21T11:45:40.054Z,16.85
2019-04-21T11:51:02.056Z,15.88
2019-04-21T11:56:25.063Z,14.30
2019-04-21T12:01:47.664Z,14.90
2019-04-21T12:07:09.517Z,15.45
2019-04-21T12:12:31.421Z,16.87
2019-04-21T12:17:54.303Z,20.27
2019-04-21T12:23:16.376Z,16.07
2019-04-21T12:28:37.923Z,17.62
2019-04-21T12:34:01.559Z,16.65
2019-04-21T12:39:23.135Z,17.40
2019-04-21T12:44:45.416Z,11.88
2019-04-21T12:50:08.966Z,28.32
2019-04-21T12:55:35.676Z,16.32
2019-04-21T13:00:54.717Z,15.50
2019-04-21T13:06:16.969Z,12.45
2019-04-21T13:11:39.272Z,11.63
2019-04-21T13:17:01.815Z,16.17
2019-04-21T13:22:23.749Z,12.18
2019-04-21T13:27:47.151Z,16.60
2019-04-21T13:33:09.643Z,14.75
2019-04-21T13:38:37.787Z,17.92
2019-04-21T13:44:15.614Z,15.08
2019-04-21T13:49:39.121Z,17.77
2019-04-21T13:55:01.293Z,21.37
2019-04-21T14:00:24.084Z,18.60
2019-04-21T14:05:46.500Z,22.07
2019-04-21T14:11:09.282Z,21.87
2019-04-21T14:16:31.988Z,13.55
2019-04-21T14:21:55.208Z,14.47
2019-04-21T14:27:18.410Z,25.72
2019-04-21T14:32:40.255Z,45.90
2019-04-21T14:38:02.763Z,24.77
2019-04-21T14:43:25.859Z,23.52
2019-04-21T14:49:27.094Z,28.90
2019-04-21T14:55:00.654Z,32.33
2019-04-21T15:00:27.122Z,27.48
2019-04-21T15:05:49.461Z,16.80
2019-04-21T15:11:11.713Z,22.20
2019-04-21T15:16:33.914Z,33.92
2019-04-21T15:21:56.707Z,37.73
2019-04-21T15:27:19.014Z,28.70
2019-04-21T15:32:42.272Z,21.23
2019-04-21T15:38:04.377Z,23.15
2019-04-21T15:43:26.596Z,31.02
2019-04-21T15:48:48.894Z,21.93
2019-04-21T15:54:10.977Z,16.12
2019-04-21T15:59:51.093Z,16.95
2019-04-21T16:05:13.185Z,19.45
2019-04-21T16:10:43.591Z,25.77
2019-04-21T16:15:59.312Z,35.33
2019-04-21T16:21:22.044Z,24.72
2019-04-21T16:26:46.693Z,22.37
2019-04-21T16:32:09.175Z,23.98
2019-04-21T16:37:31.857Z,25.85
2019-04-21T16:42:54.224Z,31.70
2019-04-21T16:48:16.988Z,27.40
2019-04-21T16:53:46.340Z,46.33
2019-04-21T16:59:16.764Z,53.70
2019-04-21T17:04:40.182Z,91.22
2019-04-21T17:10:22.508Z,51.95
2019-04-21T17:15:59.713Z,53.25
2019-04-21T17:21:09.277Z,81.22
2019-04-21T17:26:34.594Z,59.50
2019-04-21T17:31:55.433Z,88.82
2019-04-21T17:37:18.060Z,49.65
2019-04-21T17:42:46.556Z,48.80
2019-04-21T17:48:08.653Z,72.37
2019-04-21T17:53:47.777Z,44.63
2019-04-21T17:59:43.166Z,48.30
2019-04-21T18:04:49.256Z,29.02
2019-04-21T18:10:11.549Z,26.05
2019-04-21T18:15:38.334Z,32.45
2019-04-21T18:20:46.092Z,35.20
2019-04-21T18:26:21.543Z,34.55
2019-04-21T18:31:33.810Z,34.92
2019-04-21T18:37:00.850Z,21.75
2019-04-21T18:42:42.138Z,25.08
2019-04-21T18:48:27.453Z,37.38
2019-04-21T18:54:21.857Z,33.53
2019-04-21T18:59:31.063Z,21.93
2019-04-21T19:04:48.322Z,22.98
2019-04-21T19:10:35.460Z,20.35
2019-04-21T19:16:20.566Z,20.00
2019-04-21T19:21:14.152Z,24.82
2019-04-21T19:26:46.774Z,19.80
2019-04-21T19:32:01.796Z,22.35
2019-04-21T19:37:14.642Z,23.57
2019-04-21T19:42:45.629Z,20.77
2019-04-21T19:48:13.270Z,21.82
2019-04-21T19:53:35.633Z,22.90
2019-04-21T19:58:46.970Z,21.75
2019-04-21T20:04:08.485Z,19.07
2019-04-21T20:09:46.461Z,21.75
2019-04-21T20:15:19.999Z,25.00
2019-04-21T20:20:19.276Z,28.17
2019-04-21T20:25:47.483Z,25.62
2019-04-21T20:31:27.896Z,23.18
2019-04-21T20:36:51.814Z,24.07
2019-04-21T20:42:08.610Z,20.60
2019-04-21T20:47:25.585Z,22.07
2019-04-21T20:52:58.490Z,26.73
2019-04-21T20:58:20.203Z,21.68
2019-04-21T21:03:43.194Z,25.23
2019-04-21T21:09:06.091Z,23.45
2019-04-21T21:14:31.751Z,19.90
2019-04-21T21:20:02.602Z,19.80
2019-04-21T21:25:25.892Z,21.67
2019-04-21T21:30:37.623Z,17.00
2019-04-21T21:36:13.462Z,16.60
2019-04-21T21:41:27.785Z,18.77
2019-04-21T21:46:59.440Z,18.67
2019-04-21T21:52:16.634Z,18.17
2019-04-21T21:57:34.140Z,16.15
2019-04-21T22:02:58.604Z,21.68
2019-04-21T22:08:20.682Z,22.00
2019-04-21T22:13:51.163Z,22.00
2019-04-21T22:19:27.314Z,17.92
2019-04-21T22:24:46.295Z,21.73
2019-04-21T22:29:59.376Z,21.15
2019-04-21T22:35:27.343Z,25.23
2019-04-21T22:40:55.956Z,17.70
2019-04-21T22:46:05.424Z,18.20
2019-04-21T22:51:34.748Z,17.57
2019-04-21T22:56:59.314Z,19.60
2019-04-21T23:02:21.048Z,18.12
2019-04-21T23:07:41.485Z,15.33
2019-04-21T23:13:07.663Z,20.70
2019-04-21T23:18:40.031Z,15.87
2019-04-21T23:24:05.736Z,19.30
2019-04-21T23:29:39.493Z,21.82
2019-04-21T23:34:38.248Z,17.98
2019-04-21T23:40:06.929Z,17.77
2019-04-21T23:45:28.275Z,17.50
2019-04-21T23:50:54.724Z,17.25
2019-04-21T23:56:14.725Z,18.00
